sensor_id;sensor_type;location;lat;lon;timestamp;P1;durP1;ratioP1;P2;durP2;ratioP2
50429;SDS011;36359;41.556;-8.418;2024-03-22T00:01:50;14.45;;;4.68;;
50429;SDS011;36359;41.556;-8.418;2024-03-22T00:04:16;9.18;;;3.17;;
50429;SDS011;36359;41.556;-8.418;2024-03-22T00:06:43;12.75;;;3.80;;
50429;SDS011;36359;41.556;-8.418;2024-03-22T00:09:11;12.05;;;4.25;;
50429;SDS011;36359;41.556;-8.418;2024-03-22T00:11:41;12.25;;;3.63;;
50429;SDS011;36359;41.556;-8.418;2024-03-22T00:14:07;6.68;;;3.15;;
50429;SDS011;36359;41.556;-8.418;2024-03-22T00:16:34;8.93;;;3.13;;
50429;SDS011;36359;41.556;-8.418;2024-03-22T00:19:00;14.95;;;4.00;;
50429;SDS011;36359;41.556;-8.418;2024-03-22T00:21:26;13.60;;;3.53;;
50429;SDS011;36359;41.556;-8.418;2024-03-22T00:23:52;14.50;;;4.03;;
50429;SDS011;36359;41.556;-8.418;2024-03-22T00:26:17;18.92;;;3.80;;
50429;SDS011;36359;41.556;-8.418;2024-03-22T00:28:43;19.73;;;3.88;;
50429;SDS011;36359;41.556;-8.418;2024-03-22T00:31:09;14.60;;;3.60;;
50429;SDS011;36359;41.556;-8.418;2024-03-22T00:33:35;16.15;;;3.40;;
50429;SDS011;36359;41.556;-8.418;2024-03-22T00:36:01;16.60;;;3.50;;
50429;SDS011;36359;41.556;-8.418;2024-03-22T00:38:27;14.82;;;3.35;;
50429;SDS011;36359;41.556;-8.418;2024-03-22T00:40:52;13.43;;;2.85;;
50429;SDS011;36359;41.556;-8.418;2024-03-22T00:43:19;10.63;;;2.80;;
50429;SDS011;36359;41.556;-8.418;2024-03-22T00:45:45;13.27;;;2.75;;
50429;SDS011;36359;41.556;-8.418;2024-03-22T00:48:12;13.13;;;2.90;;
50429;SDS011;36359;41.556;-8.418;2024-03-22T00:50:37;13.15;;;2.70;;
50429;SDS011;36359;41.556;-8.418;2024-03-22T00:53:03;16.25;;;2.95;;
50429;SDS011;36359;41.556;-8.418;2024-03-22T00:55:30;15.07;;;3.10;;
50429;SDS011;36359;41.556;-8.418;2024-03-22T00:57:56;11.57;;;2.42;;
50429;SDS011;36359;41.556;-8.418;2024-03-22T01:00:22;13.63;;;3.20;;
50429;SDS011;36359;41.556;-8.418;2024-03-22T01:02:49;14.70;;;2.88;;
50429;SDS011;36359;41.556;-8.418;2024-03-22T01:05:15;14.80;;;2.53;;
50429;SDS011;36359;41.556;-8.418;2024-03-22T01:07:41;16.13;;;2.80;;
50429;SDS011;36359;41.556;-8.418;2024-03-22T01:10:07;12.20;;;2.78;;
50429;SDS011;36359;41.556;-8.418;2024-03-22T01:12:33;9.90;;;3.17;;
50429;SDS011;36359;41.556;-8.418;2024-03-22T01:14:59;10.63;;;2.70;;
50429;SDS011;36359;41.556;-8.418;2024-03-22T01:17:25;15.90;;;3.00;;
50429;SDS011;36359;41.556;-8.418;2024-03-22T01:19:50;16.73;;;2.90;;
50429;SDS011;36359;41.556;-8.418;2024-03-22T01:22:17;12.20;;;2.72;;
50429;SDS011;36359;41.556;-8.418;2024-03-22T01:24:43;9.45;;;3.20;;
50429;SDS011;36359;41.556;-8.418;2024-03-22T01:27:10;15.48;;;2.60;;
50429;SDS011;36359;41.556;-8.418;2024-03-22T01:29:36;11.75;;;2.58;;
50429;SDS011;36359;41.556;-8.418;2024-03-22T01:32:02;9.40;;;2.47;;
50429;SDS011;36359;41.556;-8.418;2024-03-22T01:34:28;8.60;;;2.42;;
50429;SDS011;36359;41.556;-8.418;2024-03-22T01:36:53;10.30;;;2.35;;
50429;SDS011;36359;41.556;-8.418;2024-03-22T01:39:20;11.63;;;2.42;;
50429;SDS011;36359;41.556;-8.418;2024-03-22T01:41:49;11.05;;;2.42;;
50429;SDS011;36359;41.556;-8.418;2024-03-22T01:44:16;10.50;;;2.75;;
50429;SDS011;36359;41.556;-8.418;2024-03-22T01:46:43;12.48;;;2.70;;
50429;SDS011;36359;41.556;-8.418;2024-03-22T01:49:11;9.45;;;2.40;;
50429;SDS011;36359;41.556;-8.418;2024-03-22T01:51:41;13.00;;;3.25;;
50429;SDS011;36359;41.556;-8.418;2024-03-22T01:54:10;11.18;;;2.75;;
50429;SDS011;36359;41.556;-8.418;2024-03-22T01:56:36;11.07;;;2.63;;
50429;SDS011;36359;41.556;-8.418;2024-03-22T01:59:06;12.18;;;2.38;;
50429;SDS011;36359;41.556;-8.418;2024-03-22T02:01:33;16.85;;;2.88;;
50429;SDS011;36359;41.556;-8.418;2024-03-22T02:03:59;14.63;;;3.00;;
50429;SDS011;36359;41.556;-8.418;2024-03-22T02:06:25;8.88;;;2.28;;
50429;SDS011;36359;41.556;-8.418;2024-03-22T02:08:51;12.82;;;2.83;;
50429;SDS011;36359;41.556;-8.418;2024-03-22T02:11:17;16.10;;;2.60;;
50429;SDS011;36359;41.556;-8.418;2024-03-22T02:13:44;9.52;;;2.20;;
50429;SDS011;36359;41.556;-8.418;2024-03-22T02:16:10;9.85;;;2.78;;
50429;SDS011;36359;41.556;-8.418;2024-03-22T02:18:35;13.27;;;2.30;;
50429;SDS011;36359;41.556;-8.418;2024-03-22T02:21:04;14.20;;;2.83;;
50429;SDS011;36359;41.556;-8.418;2024-03-22T02:23:33;11.55;;;3.17;;
50429;SDS011;36359;41.556;-8.418;2024-03-22T02:26:00;11.63;;;2.72;;
50429;SDS011;36359;41.556;-8.418;2024-03-22T02:28:26;10.18;;;3.47;;
50429;SDS011;36359;41.556;-8.418;2024-03-22T02:30:52;14.50;;;3.47;;
50429;SDS011;36359;41.556;-8.418;2024-03-22T02:33:18;7.32;;;2.83;;
50429;SDS011;36359;41.556;-8.418;2024-03-22T02:35:47;10.73;;;2.85;;
50429;SDS011;36359;41.556;-8.418;2024-03-22T02:38:14;15.10;;;4.10;;
50429;SDS011;36359;41.556;-8.418;2024-03-22T02:40:40;17.48;;;4.28;;
50429;SDS011;36359;41.556;-8.418;2024-03-22T02:43:06;16.30;;;4.75;;
50429;SDS011;36359;41.556;-8.418;2024-03-22T02:45:31;13.75;;;4.32;;
50429;SDS011;36359;41.556;-8.418;2024-03-22T02:47:57;12.50;;;3.13;;
50429;SDS011;36359;41.556;-8.418;2024-03-22T02:50:23;9.57;;;3.25;;
50429;SDS011;36359;41.556;-8.418;2024-03-22T02:52:49;13.38;;;4.03;;
50429;SDS011;36359;41.556;-8.418;2024-03-22T02:55:15;15.63;;;4.00;;
50429;SDS011;36359;41.556;-8.418;2024-03-22T02:57:41;11.27;;;3.30;;
50429;SDS011;36359;41.556;-8.418;2024-03-22T03:00:07;13.95;;;3.47;;
50429;SDS011;36359;41.556;-8.418;2024-03-22T03:02:33;10.25;;;3.03;;
50429;SDS011;36359;41.556;-8.418;2024-03-22T03:04:58;11.95;;;3.10;;
50429;SDS011;36359;41.556;-8.418;2024-03-22T03:07:25;11.15;;;3.50;;
50429;SDS011;36359;41.556;-8.418;2024-03-22T03:09:51;9.75;;;3.28;;
50429;SDS011;36359;41.556;-8.418;2024-03-22T03:12:16;11.95;;;3.70;;
50429;SDS011;36359;41.556;-8.418;2024-03-22T03:14:42;10.75;;;3.47;;
50429;SDS011;36359;41.556;-8.418;2024-03-22T03:17:08;11.85;;;3.92;;
50429;SDS011;36359;41.556;-8.418;2024-03-22T03:19:34;14.13;;;4.15;;
50429;SDS011;36359;41.556;-8.418;2024-03-22T03:22:01;16.80;;;4.43;;
50429;SDS011;36359;41.556;-8.418;2024-03-22T03:24:27;13.52;;;3.60;;
50429;SDS011;36359;41.556;-8.418;2024-03-22T03:26:53;17.27;;;4.72;;
50429;SDS011;36359;41.556;-8.418;2024-03-22T03:29:19;17.35;;;5.15;;
50429;SDS011;36359;41.556;-8.418;2024-03-22T03:31:45;16.83;;;4.60;;
50429;SDS011;36359;41.556;-8.418;2024-03-22T03:34:10;15.07;;;4.18;;
50429;SDS011;36359;41.556;-8.418;2024-03-22T03:36:36;8.57;;;2.78;;
50429;SDS011;36359;41.556;-8.418;2024-03-22T03:39:05;8.35;;;3.50;;
50429;SDS011;36359;41.556;-8.418;2024-03-22T03:41:30;11.55;;;4.43;;
50429;SDS011;36359;41.556;-8.418;2024-03-22T03:43:56;5.75;;;2.85;;
50429;SDS011;36359;41.556;-8.418;2024-03-22T03:46:22;8.90;;;2.78;;
50429;SDS011;36359;41.556;-8.418;2024-03-22T03:48:49;8.63;;;3.28;;
50429;SDS011;36359;41.556;-8.418;2024-03-22T03:51:15;8.43;;;2.97;;
50429;SDS011;36359;41.556;-8.418;2024-03-22T03:53:41;8.45;;;3.17;;
50429;SDS011;36359;41.556;-8.418;2024-03-22T03:56:06;10.45;;;4.00;;
50429;SDS011;36359;41.556;-8.418;2024-03-22T03:58:32;10.18;;;4.22;;
50429;SDS011;36359;41.556;-8.418;2024-03-22T04:00:58;8.00;;;3.17;;
50429;SDS011;36359;41.556;-8.418;2024-03-22T04:03:23;13.90;;;3.65;;
50429;SDS011;36359;41.556;-8.418;2024-03-22T04:05:56;5.72;;;2.55;;
50429;SDS011;36359;41.556;-8.418;2024-03-22T04:08:22;8.77;;;2.92;;
50429;SDS011;36359;41.556;-8.418;2024-03-22T04:10:52;15.10;;;3.13;;
50429;SDS011;36359;41.556;-8.418;2024-03-22T04:13:18;10.65;;;2.38;;
50429;SDS011;36359;41.556;-8.418;2024-03-22T04:15:44;8.77;;;2.22;;
50429;SDS011;36359;41.556;-8.418;2024-03-22T04:18:09;5.97;;;2.53;;
50429;SDS011;36359;41.556;-8.418;2024-03-22T04:20:35;10.10;;;2.88;;
50429;SDS011;36359;41.556;-8.418;2024-03-22T04:23:01;6.57;;;2.20;;
50429;SDS011;36359;41.556;-8.418;2024-03-22T04:25:26;7.85;;;2.67;;
50429;SDS011;36359;41.556;-8.418;2024-03-22T04:27:52;7.15;;;2.20;;
50429;SDS011;36359;41.556;-8.418;2024-03-22T04:30:18;6.13;;;2.10;;
50429;SDS011;36359;41.556;-8.418;2024-03-22T04:32:45;7.78;;;2.33;;
50429;SDS011;36359;41.556;-8.418;2024-03-22T04:35:12;13.45;;;2.75;;
50429;SDS011;36359;41.556;-8.418;2024-03-22T04:37:38;12.15;;;3.03;;
50429;SDS011;36359;41.556;-8.418;2024-03-22T04:40:03;7.38;;;2.45;;
50429;SDS011;36359;41.556;-8.418;2024-03-22T04:42:30;14.93;;;2.28;;
50429;SDS011;36359;41.556;-8.418;2024-03-22T04:44:55;9.07;;;2.92;;
50429;SDS011;36359;41.556;-8.418;2024-03-22T04:47:23;12.07;;;2.88;;
50429;SDS011;36359;41.556;-8.418;2024-03-22T04:49:49;11.02;;;3.10;;
50429;SDS011;36359;41.556;-8.418;2024-03-22T04:52:14;10.20;;;2.53;;
50429;SDS011;36359;41.556;-8.418;2024-03-22T04:54:40;5.97;;;2.45;;
50429;SDS011;36359;41.556;-8.418;2024-03-22T04:57:06;7.97;;;2.50;;
50429;SDS011;36359;41.556;-8.418;2024-03-22T04:59:31;9.45;;;2.97;;
50429;SDS011;36359;41.556;-8.418;2024-03-22T05:01:57;9.57;;;2.50;;
50429;SDS011;36359;41.556;-8.418;2024-03-22T05:04:23;12.13;;;2.58;;
50429;SDS011;36359;41.556;-8.418;2024-03-22T05:06:49;8.05;;;2.22;;
50429;SDS011;36359;41.556;-8.418;2024-03-22T05:09:15;6.57;;;2.40;;
50429;SDS011;36359;41.556;-8.418;2024-03-22T05:11:40;6.95;;;1.73;;
50429;SDS011;36359;41.556;-8.418;2024-03-22T05:14:06;9.82;;;2.50;;
50429;SDS011;36359;41.556;-8.418;2024-03-22T05:16:32;14.60;;;2.38;;
50429;SDS011;36359;41.556;-8.418;2024-03-22T05:18:58;15.10;;;3.45;;
50429;SDS011;36359;41.556;-8.418;2024-03-22T05:21:24;14.10;;;3.60;;
50429;SDS011;36359;41.556;-8.418;2024-03-22T05:23:50;11.70;;;2.80;;
50429;SDS011;36359;41.556;-8.418;2024-03-22T05:26:15;14.70;;;4.18;;
50429;SDS011;36359;41.556;-8.418;2024-03-22T05:28:41;8.45;;;2.70;;
50429;SDS011;36359;41.556;-8.418;2024-03-22T05:31:07;7.13;;;2.58;;
50429;SDS011;36359;41.556;-8.418;2024-03-22T05:33:33;4.72;;;1.92;;
50429;SDS011;36359;41.556;-8.418;2024-03-22T05:35:59;6.68;;;1.75;;
50429;SDS011;36359;41.556;-8.418;2024-03-22T05:38:24;10.68;;;2.67;;
50429;SDS011;36359;41.556;-8.418;2024-03-22T05:40:50;4.75;;;1.85;;
50429;SDS011;36359;41.556;-8.418;2024-03-22T05:43:16;9.82;;;2.85;;
50429;SDS011;36359;41.556;-8.418;2024-03-22T05:45:42;12.75;;;3.08;;
50429;SDS011;36359;41.556;-8.418;2024-03-22T05:48:08;14.02;;;3.40;;
50429;SDS011;36359;41.556;-8.418;2024-03-22T05:50:33;12.52;;;3.30;;
50429;SDS011;36359;41.556;-8.418;2024-03-22T05:52:59;12.25;;;2.95;;
50429;SDS011;36359;41.556;-8.418;2024-03-22T05:55:25;11.52;;;3.35;;
50429;SDS011;36359;41.556;-8.418;2024-03-22T05:57:52;13.50;;;2.67;;
50429;SDS011;36359;41.556;-8.418;2024-03-22T06:00:18;7.78;;;3.15;;
50429;SDS011;36359;41.556;-8.418;2024-03-22T06:02:44;9.75;;;3.63;;
50429;SDS011;36359;41.556;-8.418;2024-03-22T06:05:09;15.18;;;4.28;;
50429;SDS011;36359;41.556;-8.418;2024-03-22T06:07:35;16.83;;;4.28;;
50429;SDS011;36359;41.556;-8.418;2024-03-22T06:10:07;16.67;;;4.57;;
50429;SDS011;36359;41.556;-8.418;2024-03-22T06:12:35;15.48;;;4.60;;
50429;SDS011;36359;41.556;-8.418;2024-03-22T06:15:01;15.98;;;4.78;;
50429;SDS011;36359;41.556;-8.418;2024-03-22T06:17:32;12.30;;;4.60;;
50429;SDS011;36359;41.556;-8.418;2024-03-22T06:19:59;12.25;;;3.72;;
50429;SDS011;36359;41.556;-8.418;2024-03-22T06:22:25;11.52;;;4.50;;
50429;SDS011;36359;41.556;-8.418;2024-03-22T06:24:51;12.23;;;3.75;;
50429;SDS011;36359;41.556;-8.418;2024-03-22T06:27:18;12.55;;;3.83;;
50429;SDS011;36359;41.556;-8.418;2024-03-22T06:29:44;11.10;;;3.00;;
50429;SDS011;36359;41.556;-8.418;2024-03-22T06:32:10;17.42;;;3.83;;
50429;SDS011;36359;41.556;-8.418;2024-03-22T06:34:35;9.65;;;2.58;;
50429;SDS011;36359;41.556;-8.418;2024-03-22T06:37:02;13.23;;;3.10;;
50429;SDS011;36359;41.556;-8.418;2024-03-22T06:39:27;13.20;;;3.33;;
50429;SDS011;36359;41.556;-8.418;2024-03-22T06:41:53;11.48;;;3.60;;
50429;SDS011;36359;41.556;-8.418;2024-03-22T06:44:19;15.77;;;4.50;;
50429;SDS011;36359;41.556;-8.418;2024-03-22T06:46:45;11.48;;;4.68;;
50429;SDS011;36359;41.556;-8.418;2024-03-22T06:49:10;14.02;;;3.55;;
50429;SDS011;36359;41.556;-8.418;2024-03-22T06:51:36;10.30;;;3.03;;
50429;SDS011;36359;41.556;-8.418;2024-03-22T06:54:02;9.85;;;2.67;;
50429;SDS011;36359;41.556;-8.418;2024-03-22T06:56:27;6.20;;;2.42;;
50429;SDS011;36359;41.556;-8.418;2024-03-22T06:58:53;17.33;;;3.55;;
50429;SDS011;36359;41.556;-8.418;2024-03-22T07:01:19;11.93;;;2.95;;
50429;SDS011;36359;41.556;-8.418;2024-03-22T07:03:46;18.65;;;3.10;;
50429;SDS011;36359;41.556;-8.418;2024-03-22T07:06:13;13.90;;;3.58;;
50429;SDS011;36359;41.556;-8.418;2024-03-22T07:08:40;11.65;;;4.10;;
50429;SDS011;36359;41.556;-8.418;2024-03-22T07:11:06;23.80;;;8.98;;
50429;SDS011;36359;41.556;-8.418;2024-03-22T07:13:32;29.75;;;13.10;;
50429;SDS011;36359;41.556;-8.418;2024-03-22T07:15:57;16.20;;;6.53;;
50429;SDS011;36359;41.556;-8.418;2024-03-22T07:18:23;15.73;;;5.70;;
50429;SDS011;36359;41.556;-8.418;2024-03-22T07:20:49;16.48;;;6.20;;
50429;SDS011;36359;41.556;-8.418;2024-03-22T07:23:15;13.55;;;5.28;;
50429;SDS011;36359;41.556;-8.418;2024-03-22T07:25:40;13.05;;;5.15;;
50429;SDS011;36359;41.556;-8.418;2024-03-22T07:28:11;16.30;;;6.65;;
50429;SDS011;36359;41.556;-8.418;2024-03-22T07:30:37;19.35;;;6.43;;
50429;SDS011;36359;41.556;-8.418;2024-03-22T07:33:03;19.63;;;6.60;;
50429;SDS011;36359;41.556;-8.418;2024-03-22T07:35:29;23.80;;;6.72;;
50429;SDS011;36359;41.556;-8.418;2024-03-22T07:37:56;19.02;;;6.90;;
50429;SDS011;36359;41.556;-8.418;2024-03-22T07:40:22;12.63;;;5.07;;
50429;SDS011;36359;41.556;-8.418;2024-03-22T07:42:48;18.33;;;5.88;;
50429;SDS011;36359;41.556;-8.418;2024-03-22T07:45:13;9.45;;;3.28;;
50429;SDS011;36359;41.556;-8.418;2024-03-22T07:47:39;14.27;;;4.57;;
50429;SDS011;36359;41.556;-8.418;2024-03-22T07:50:07;18.95;;;4.72;;
50429;SDS011;36359;41.556;-8.418;2024-03-22T07:52:36;18.38;;;5.18;;
50429;SDS011;36359;41.556;-8.418;2024-03-22T07:55:02;18.40;;;4.57;;
50429;SDS011;36359;41.556;-8.418;2024-03-22T07:57:29;21.15;;;6.13;;
50429;SDS011;36359;41.556;-8.418;2024-03-22T08:00:00;21.65;;;9.02;;
50429;SDS011;36359;41.556;-8.418;2024-03-22T08:02:37;18.05;;;6.60;;
50429;SDS011;36359;41.556;-8.418;2024-03-22T08:05:02;12.95;;;6.20;;
50429;SDS011;36359;41.556;-8.418;2024-03-22T08:07:29;16.30;;;6.18;;
50429;SDS011;36359;41.556;-8.418;2024-03-22T08:09:55;17.75;;;5.72;;
50429;SDS011;36359;41.556;-8.418;2024-03-22T08:12:23;23.40;;;7.65;;
50429;SDS011;36359;41.556;-8.418;2024-03-22T08:14:50;22.80;;;6.53;;
50429;SDS011;36359;41.556;-8.418;2024-03-22T08:17:16;21.52;;;6.75;;
50429;SDS011;36359;41.556;-8.418;2024-03-22T08:19:42;22.38;;;6.07;;
50429;SDS011;36359;41.556;-8.418;2024-03-22T08:22:10;22.05;;;6.10;;
50429;SDS011;36359;41.556;-8.418;2024-03-22T08:24:36;21.98;;;5.70;;
50429;SDS011;36359;41.556;-8.418;2024-03-22T08:27:02;27.20;;;5.22;;
50429;SDS011;36359;41.556;-8.418;2024-03-22T08:29:29;21.10;;;6.20;;
50429;SDS011;36359;41.556;-8.418;2024-03-22T08:31:54;25.92;;;6.72;;
50429;SDS011;36359;41.556;-8.418;2024-03-22T08:34:21;22.13;;;6.13;;
50429;SDS011;36359;41.556;-8.418;2024-03-22T08:36:47;25.05;;;6.82;;
50429;SDS011;36359;41.556;-8.418;2024-03-22T08:39:13;33.28;;;6.28;;
50429;SDS011;36359;41.556;-8.418;2024-03-22T08:41:38;20.65;;;5.88;;
50429;SDS011;36359;41.556;-8.418;2024-03-22T08:44:04;21.95;;;5.93;;
50429;SDS011;36359;41.556;-8.418;2024-03-22T08:46:30;18.20;;;6.78;;
50429;SDS011;36359;41.556;-8.418;2024-03-22T08:48:57;19.60;;;6.85;;
50429;SDS011;36359;41.556;-8.418;2024-03-22T08:51:23;16.08;;;4.90;;
50429;SDS011;36359;41.556;-8.418;2024-03-22T08:53:49;25.38;;;6.88;;
50429;SDS011;36359;41.556;-8.418;2024-03-22T08:56:14;21.48;;;6.78;;
50429;SDS011;36359;41.556;-8.418;2024-03-22T08:58:40;23.25;;;6.90;;
50429;SDS011;36359;41.556;-8.418;2024-03-22T09:01:06;15.63;;;5.35;;
50429;SDS011;36359;41.556;-8.418;2024-03-22T09:03:35;19.95;;;6.55;;
50429;SDS011;36359;41.556;-8.418;2024-03-22T09:06:02;21.45;;;6.95;;
50429;SDS011;36359;41.556;-8.418;2024-03-22T09:08:28;19.40;;;6.68;;
50429;SDS011;36359;41.556;-8.418;2024-03-22T09:10:55;16.38;;;6.72;;
50429;SDS011;36359;41.556;-8.418;2024-03-22T09:13:21;21.50;;;9.20;;
50429;SDS011;36359;41.556;-8.418;2024-03-22T09:15:46;19.88;;;9.65;;
50429;SDS011;36359;41.556;-8.418;2024-03-22T09:18:13;23.95;;;8.55;;
50429;SDS011;36359;41.556;-8.418;2024-03-22T09:20:39;21.77;;;8.32;;
50429;SDS011;36359;41.556;-8.418;2024-03-22T09:23:08;27.55;;;8.68;;
50429;SDS011;36359;41.556;-8.418;2024-03-22T09:25:40;23.15;;;8.70;;
50429;SDS011;36359;41.556;-8.418;2024-03-22T09:28:06;26.02;;;8.45;;
50429;SDS011;36359;41.556;-8.418;2024-03-22T09:30:32;27.73;;;9.52;;
50429;SDS011;36359;41.556;-8.418;2024-03-22T09:32:58;35.80;;;11.38;;
50429;SDS011;36359;41.556;-8.418;2024-03-22T09:35:24;39.83;;;12.30;;
50429;SDS011;36359;41.556;-8.418;2024-03-22T09:37:52;43.20;;;14.32;;
50429;SDS011;36359;41.556;-8.418;2024-03-22T09:40:19;35.00;;;11.32;;
50429;SDS011;36359;41.556;-8.418;2024-03-22T09:42:45;34.15;;;9.60;;
50429;SDS011;36359;41.556;-8.418;2024-03-22T09:45:14;21.52;;;6.82;;
50429;SDS011;36359;41.556;-8.418;2024-03-22T09:47:41;25.63;;;6.88;;
50429;SDS011;36359;41.556;-8.418;2024-03-22T09:50:07;17.83;;;7.15;;
50429;SDS011;36359;41.556;-8.418;2024-03-22T09:52:33;18.90;;;5.88;;
50429;SDS011;36359;41.556;-8.418;2024-03-22T09:55:03;18.20;;;5.68;;
50429;SDS011;36359;41.556;-8.418;2024-03-22T09:57:31;24.23;;;6.43;;
50429;SDS011;36359;41.556;-8.418;2024-03-22T09:59:59;21.45;;;5.13;;
50429;SDS011;36359;41.556;-8.418;2024-03-22T10:02:25;23.85;;;5.53;;
50429;SDS011;36359;41.556;-8.418;2024-03-22T10:04:52;21.83;;;5.25;;
50429;SDS011;36359;41.556;-8.418;2024-03-22T10:07:18;20.15;;;5.95;;
50429;SDS011;36359;41.556;-8.418;2024-03-22T10:09:44;22.33;;;6.35;;
50429;SDS011;36359;41.556;-8.418;2024-03-22T10:12:09;29.25;;;6.88;;
50429;SDS011;36359;41.556;-8.418;2024-03-22T10:14:35;27.13;;;6.28;;
50429;SDS011;36359;41.556;-8.418;2024-03-22T10:17:02;24.65;;;5.53;;
50429;SDS011;36359;41.556;-8.418;2024-03-22T10:19:28;19.45;;;5.40;;
50429;SDS011;36359;41.556;-8.418;2024-03-22T10:22:00;17.92;;;6.30;;
50429;SDS011;36359;41.556;-8.418;2024-03-22T10:24:29;22.35;;;6.55;;
50429;SDS011;36359;41.556;-8.418;2024-03-22T10:26:56;21.58;;;6.35;;
50429;SDS011;36359;41.556;-8.418;2024-03-22T10:29:22;27.50;;;6.88;;
50429;SDS011;36359;41.556;-8.418;2024-03-22T10:31:50;27.33;;;7.53;;
50429;SDS011;36359;41.556;-8.418;2024-03-22T10:34:17;24.23;;;6.57;;
50429;SDS011;36359;41.556;-8.418;2024-03-22T10:36:45;38.80;;;6.82;;
50429;SDS011;36359;41.556;-8.418;2024-03-22T10:39:12;26.83;;;6.55;;
50429;SDS011;36359;41.556;-8.418;2024-03-22T10:41:42;15.02;;;5.22;;
50429;SDS011;36359;41.556;-8.418;2024-03-22T10:44:10;22.75;;;5.53;;
50429;SDS011;36359;41.556;-8.418;2024-03-22T10:46:36;29.23;;;7.75;;
50429;SDS011;36359;41.556;-8.418;2024-03-22T10:49:03;28.15;;;6.95;;
50429;SDS011;36359;41.556;-8.418;2024-03-22T10:51:32;22.75;;;6.03;;
50429;SDS011;36359;41.556;-8.418;2024-03-22T10:53:59;24.77;;;5.35;;
50429;SDS011;36359;41.556;-8.418;2024-03-22T10:58:56;23.90;;;5.07;;
50429;SDS011;36359;41.556;-8.418;2024-03-22T11:01:22;20.48;;;4.40;;
50429;SDS011;36359;41.556;-8.418;2024-03-22T11:04:05;18.50;;;4.78;;
50429;SDS011;36359;41.556;-8.418;2024-03-22T11:06:37;20.25;;;4.40;;
50429;SDS011;36359;41.556;-8.418;2024-03-22T11:09:03;26.05;;;4.93;;
50429;SDS011;36359;41.556;-8.418;2024-03-22T11:11:34;17.48;;;4.63;;
50429;SDS011;36359;41.556;-8.418;2024-03-22T11:14:03;22.23;;;4.80;;
50429;SDS011;36359;41.556;-8.418;2024-03-22T11:16:29;28.98;;;5.53;;
50429;SDS011;36359;41.556;-8.418;2024-03-22T11:18:55;31.40;;;5.57;;
50429;SDS011;36359;41.556;-8.418;2024-03-22T11:21:21;22.60;;;5.50;;
50429;SDS011;36359;41.556;-8.418;2024-03-22T11:23:53;19.02;;;4.85;;
50429;SDS011;36359;41.556;-8.418;2024-03-22T11:26:19;17.08;;;4.68;;
50429;SDS011;36359;41.556;-8.418;2024-03-22T11:28:45;21.02;;;5.15;;
50429;SDS011;36359;41.556;-8.418;2024-03-22T11:31:12;17.23;;;4.80;;
50429;SDS011;36359;41.556;-8.418;2024-03-22T11:33:39;31.00;;;5.18;;
50429;SDS011;36359;41.556;-8.418;2024-03-22T11:36:05;22.05;;;4.47;;
50429;SDS011;36359;41.556;-8.418;2024-03-22T11:38:31;22.23;;;5.03;;
50429;SDS011;36359;41.556;-8.418;2024-03-22T11:40:58;21.70;;;4.70;;
50429;SDS011;36359;41.556;-8.418;2024-03-22T11:43:27;21.25;;;4.80;;
50429;SDS011;36359;41.556;-8.418;2024-03-22T11:45:54;23.98;;;5.10;;
50429;SDS011;36359;41.556;-8.418;2024-03-22T11:48:21;24.38;;;4.95;;
50429;SDS011;36359;41.556;-8.418;2024-03-22T11:50:48;20.63;;;5.32;;
50429;SDS011;36359;41.556;-8.418;2024-03-22T11:53:15;19.25;;;4.60;;
50429;SDS011;36359;41.556;-8.418;2024-03-22T11:55:42;22.20;;;5.35;;
50429;SDS011;36359;41.556;-8.418;2024-03-22T11:58:09;27.30;;;5.68;;
50429;SDS011;36359;41.556;-8.418;2024-03-22T12:00:38;27.80;;;5.68;;
50429;SDS011;36359;41.556;-8.418;2024-03-22T12:03:04;27.75;;;6.20;;
50429;SDS011;36359;41.556;-8.418;2024-03-22T12:05:33;24.60;;;5.53;;
50429;SDS011;36359;41.556;-8.418;2024-03-22T12:07:58;18.58;;;4.18;;
50429;SDS011;36359;41.556;-8.418;2024-03-22T12:10:24;20.90;;;5.20;;
50429;SDS011;36359;41.556;-8.418;2024-03-22T12:12:50;19.42;;;4.95;;
50429;SDS011;36359;41.556;-8.418;2024-03-22T12:15:19;22.40;;;3.92;;
50429;SDS011;36359;41.556;-8.418;2024-03-22T12:17:45;21.02;;;4.03;;
50429;SDS011;36359;41.556;-8.418;2024-03-22T12:20:11;20.70;;;4.32;;
50429;SDS011;36359;41.556;-8.418;2024-03-22T12:22:37;19.50;;;4.65;;
50429;SDS011;36359;41.556;-8.418;2024-03-22T12:25:03;17.90;;;4.40;;
50429;SDS011;36359;41.556;-8.418;2024-03-22T12:27:31;16.80;;;4.50;;
50429;SDS011;36359;41.556;-8.418;2024-03-22T12:29:56;15.05;;;4.38;;
50429;SDS011;36359;41.556;-8.418;2024-03-22T12:32:22;25.33;;;4.68;;
50429;SDS011;36359;41.556;-8.418;2024-03-22T12:34:48;26.75;;;4.78;;
50429;SDS011;36359;41.556;-8.418;2024-03-22T12:37:14;19.67;;;4.50;;
50429;SDS011;36359;41.556;-8.418;2024-03-22T12:39:40;25.75;;;4.70;;
50429;SDS011;36359;41.556;-8.418;2024-03-22T12:42:06;15.30;;;4.93;;
50429;SDS011;36359;41.556;-8.418;2024-03-22T12:44:32;20.08;;;4.22;;
50429;SDS011;36359;41.556;-8.418;2024-03-22T12:47:01;18.80;;;4.10;;
50429;SDS011;36359;41.556;-8.418;2024-03-22T12:49:26;24.88;;;4.13;;
50429;SDS011;36359;41.556;-8.418;2024-03-22T12:51:52;31.85;;;4.88;;
50429;SDS011;36359;41.556;-8.418;2024-03-22T12:54:18;26.45;;;5.13;;
50429;SDS011;36359;41.556;-8.418;2024-03-22T12:56:45;23.70;;;4.95;;
50429;SDS011;36359;41.556;-8.418;2024-03-22T12:59:11;19.90;;;5.65;;
50429;SDS011;36359;41.556;-8.418;2024-03-22T13:01:37;24.33;;;4.35;;
50429;SDS011;36359;41.556;-8.418;2024-03-22T13:04:06;30.70;;;5.63;;
50429;SDS011;36359;41.556;-8.418;2024-03-22T13:06:32;23.42;;;5.10;;
50429;SDS011;36359;41.556;-8.418;2024-03-22T13:08:59;19.55;;;4.20;;
50429;SDS011;36359;41.556;-8.418;2024-03-22T13:11:26;17.45;;;5.20;;
50429;SDS011;36359;41.556;-8.418;2024-03-22T13:13:52;16.83;;;4.32;;
50429;SDS011;36359;41.556;-8.418;2024-03-22T13:16:18;24.08;;;5.45;;
50429;SDS011;36359;41.556;-8.418;2024-03-22T13:18:44;21.70;;;4.93;;
50429;SDS011;36359;41.556;-8.418;2024-03-22T13:21:09;17.92;;;4.80;;
50429;SDS011;36359;41.556;-8.418;2024-03-22T13:23:36;31.58;;;5.82;;
50429;SDS011;36359;41.556;-8.418;2024-03-22T13:26:05;22.20;;;5.45;;
50429;SDS011;36359;41.556;-8.418;2024-03-22T13:28:32;27.40;;;5.32;;
50429;SDS011;36359;41.556;-8.418;2024-03-22T13:31:04;19.55;;;4.00;;
50429;SDS011;36359;41.556;-8.418;2024-03-22T13:33:34;15.15;;;4.30;;
50429;SDS011;36359;41.556;-8.418;2024-03-22T13:36:05;24.52;;;4.75;;
50429;SDS011;36359;41.556;-8.418;2024-03-22T13:38:30;23.85;;;5.15;;
50429;SDS011;36359;41.556;-8.418;2024-03-22T13:40:57;18.70;;;4.65;;
50429;SDS011;36359;41.556;-8.418;2024-03-22T13:43:25;21.38;;;4.47;;
50429;SDS011;36359;41.556;-8.418;2024-03-22T13:45:52;26.63;;;4.80;;
50429;SDS011;36359;41.556;-8.418;2024-03-22T13:48:21;20.70;;;5.30;;
50429;SDS011;36359;41.556;-8.418;2024-03-22T13:53:18;23.65;;;5.00;;
50429;SDS011;36359;41.556;-8.418;2024-03-22T13:55:44;24.92;;;5.68;;
50429;SDS011;36359;41.556;-8.418;2024-03-22T13:58:10;29.98;;;5.90;;
50429;SDS011;36359;41.556;-8.418;2024-03-22T14:00:37;24.15;;;5.25;;
50429;SDS011;36359;41.556;-8.418;2024-03-22T14:03:03;27.65;;;5.47;;
50429;SDS011;36359;41.556;-8.418;2024-03-22T14:05:30;26.55;;;5.50;;
50429;SDS011;36359;41.556;-8.418;2024-03-22T14:07:56;20.13;;;4.85;;
50429;SDS011;36359;41.556;-8.418;2024-03-22T14:10:23;19.20;;;5.00;;
50429;SDS011;36359;41.556;-8.418;2024-03-22T14:12:50;30.17;;;6.20;;
50429;SDS011;36359;41.556;-8.418;2024-03-22T14:15:16;24.70;;;5.43;;
50429;SDS011;36359;41.556;-8.418;2024-03-22T14:17:42;32.83;;;5.90;;
50429;SDS011;36359;41.556;-8.418;2024-03-22T14:20:08;28.35;;;6.20;;
50429;SDS011;36359;41.556;-8.418;2024-03-22T14:22:40;19.65;;;4.82;;
50429;SDS011;36359;41.556;-8.418;2024-03-22T14:25:09;20.52;;;5.28;;